createdAt,value
2023-02-14T00:00:20.621Z,-0.08
2023-02-14T00:02:37.105Z,-0.11
2023-02-14T00:04:53.519Z,-0.13
2023-02-14T00:07:09.979Z,-0.16
2023-02-14T00:09:26.435Z,-0.16
2023-02-14T00:11:43.133Z,-0.18
2023-02-14T00:14:00.607Z,-0.18
2023-02-14T00:16:17.047Z,-0.19
2023-02-14T00:18:33.461Z,-0.22
2023-02-14T00:20:49.914Z,-0.25
2023-02-14T00:23:06.402Z,-0.27
2023-02-14T00:25:23.105Z,-0.30
2023-02-14T00:27:39.547Z,-0.31
2023-02-14T00:29:56.071Z,-0.30
2023-02-14T00:32:12.844Z,-0.31
2023-02-14T00:34:30.594Z,-0.32
2023-02-14T00:36:47.084Z,-0.33
2023-02-14T00:39:03.740Z,-0.36
2023-02-14T00:41:20.185Z,-0.38
2023-02-14T00:43:36.672Z,-0.39
2023-02-14T00:45:53.226Z,-0.41
2023-02-14T00:48:09.996Z,-0.44
2023-02-14T00:50:26.702Z,-0.46
2023-02-14T00:52:43.407Z,-0.47
2023-02-14T00:54:59.752Z,-0.47
2023-02-14T00:57:16.195Z,-0.46
2023-02-14T00:59:32.974Z,-0.50
2023-02-14T01:01:49.404Z,-0.53
2023-02-14T01:04:05.687Z,-0.57
2023-02-14T01:06:23.134Z,-0.57
2023-02-14T01:08:39.883Z,-0.58
2023-02-14T01:10:56.630Z,-0.57
2023-02-14T01:13:13.400Z,-0.56
2023-02-14T01:15:30.099Z,-0.58
2023-02-14T01:17:46.897Z,-0.60
2023-02-14T01:20:03.411Z,-0.64
2023-02-14T01:22:19.835Z,-0.67
2023-02-14T01:24:36.602Z,-0.67
2023-02-14T01:26:53.335Z,-0.69
2023-02-14T01:29:10.012Z,-0.71
2023-02-14T01:31:26.912Z,-0.72
2023-02-14T01:33:43.464Z,-0.76
2023-02-14T01:35:59.993Z,-0.79
2023-02-14T01:38:16.670Z,-0.79
2023-02-14T01:40:33.405Z,-0.80
2023-02-14T01:42:51.173Z,-0.83
2023-02-14T01:45:07.624Z,-0.84
2023-02-14T01:47:24.036Z,-0.86
2023-02-14T01:49:40.656Z,-0.88
2023-02-14T01:51:57.485Z,-0.89
2023-02-14T01:54:13.970Z,-0.91
2023-02-14T01:56:30.489Z,-0.92
2023-02-14T01:58:47.261Z,-0.95
2023-02-14T02:01:04.623Z,-0.97
2023-02-14T02:03:21.088Z,-0.98
2023-02-14T02:05:37.790Z,-0.99
2023-02-14T02:07:54.240Z,-1.00
2023-02-14T02:10:11.975Z,-0.99
2023-02-14T02:12:30.699Z,-0.99
2023-02-14T02:14:47.365Z,-0.98
2023-02-14T02:17:03.788Z,-0.99
2023-02-14T02:19:20.497Z,-0.96
2023-02-14T02:21:37.192Z,-0.94
2023-02-14T02:23:53.596Z,-0.92
2023-02-14T02:26:10.049Z,-0.90
2023-02-14T02:28:26.495Z,-0.88
2023-02-14T02:30:43.387Z,-0.84
2023-02-14T02:33:00.130Z,-0.81
2023-02-14T02:35:16.849Z,-0.78
2023-02-14T02:37:33.206Z,-0.73
2023-02-14T02:39:49.782Z,-0.71
2023-02-14T02:42:06.288Z,-0.69
2023-02-14T02:44:23.014Z,-0.67
2023-02-14T02:46:39.584Z,-0.66
2023-02-14T02:48:56.404Z,-0.65
2023-02-14T02:51:12.806Z,-0.64
2023-02-14T02:53:29.331Z,-0.58
2023-02-14T02:55:45.783Z,-0.55
2023-02-14T02:58:02.291Z,-0.53
2023-02-14T03:00:18.738Z,-0.52
2023-02-14T03:02:35.420Z,-0.49
2023-02-14T03:04:52.043Z,-0.44
2023-02-14T03:07:08.825Z,-0.41
2023-02-14T03:09:25.167Z,-0.40
2023-02-14T03:11:41.596Z,-0.40
2023-02-14T03:13:58.051Z,-0.38
2023-02-14T03:16:14.801Z,-0.40
2023-02-14T03:18:31.506Z,-0.39
2023-02-14T03:20:47.967Z,-0.35
2023-02-14T03:23:04.471Z,-0.33
2023-02-14T03:25:21.232Z,-0.36
2023-02-14T03:27:37.644Z,-0.40
2023-02-14T03:29:54.385Z,-0.39
2023-02-14T03:32:10.993Z,-0.39
2023-02-14T03:34:27.452Z,-0.39
2023-02-14T03:36:43.884Z,-0.41
2023-02-14T03:39:00.518Z,-0.42
2023-02-14T03:41:16.998Z,-0.42
2023-02-14T03:43:33.726Z,-0.42
2023-02-14T03:45:50.379Z,-0.40
2023-02-14T03:48:06.844Z,-0.38
2023-02-14T03:50:23.490Z,-0.39
2023-02-14T03:52:40.232Z,-0.39
2023-02-14T03:54:56.688Z,-0.39
2023-02-14T03:57:13.074Z,-0.39
2023-02-14T03:59:29.529Z,-0.39
2023-02-14T04:01:46.341Z,-0.39
2023-02-14T04:04:03.099Z,-0.35
2023-02-14T04:06:19.828Z,-0.31
2023-02-14T04:08:36.298Z,-0.30
2023-02-14T04:10:52.989Z,-0.28
2023-02-14T04:13:09.432Z,-0.27
2023-02-14T04:15:25.759Z,-0.26
2023-02-14T04:17:42.181Z,-0.25
2023-02-14T04:19:58.876Z,-0.27
2023-02-14T04:22:15.543Z,-0.25
2023-02-14T04:24:31.985Z,-0.27
2023-02-14T04:26:48.410Z,-0.26
2023-02-14T04:29:05.196Z,-0.27
2023-02-14T04:31:21.770Z,-0.27
2023-02-14T04:33:38.211Z,-0.28
2023-02-14T04:35:54.623Z,-0.32
2023-02-14T04:38:11.288Z,-0.30
2023-02-14T04:40:28.959Z,-0.25
2023-02-14T04:42:45.643Z,-0.22
2023-02-14T04:45:04.216Z,-0.26
2023-02-14T04:47:21.213Z,-0.29
2023-02-14T04:49:37.705Z,-0.29
2023-02-14T04:51:54.209Z,-0.31
2023-02-14T04:54:10.898Z,-0.32
2023-02-14T04:56:27.628Z,-0.30
2023-02-14T04:58:44.262Z,-0.26
2023-02-14T05:01:00.870Z,-0.25
2023-02-14T05:03:17.529Z,-0.25
2023-02-14T05:05:33.974Z,-0.25
2023-02-14T05:07:50.641Z,-0.19
2023-02-14T05:10:07.390Z,-0.18
2023-02-14T05:12:24.014Z,-0.16
2023-02-14T05:14:40.702Z,-0.14
2023-02-14T05:16:57.160Z,-0.10
2023-02-14T05:19:14.240Z,-0.06
2023-02-14T05:21:30.725Z,-0.03
2023-02-14T05:23:47.577Z,-0.04
2023-02-14T05:26:04.208Z,-0.04
2023-02-14T05:28:20.677Z,-0.02
2023-02-14T05:30:37.265Z,0.03
2023-02-14T05:32:53.882Z,0.07
2023-02-14T05:35:10.235Z,0.09
2023-02-14T05:37:26.904Z,0.08
2023-02-14T05:39:43.352Z,0.07
2023-02-14T05:41:59.713Z,0.07
2023-02-14T05:44:16.208Z,0.09
2023-02-14T05:46:32.638Z,0.11
2023-02-14T05:48:49.303Z,0.14
2023-02-14T05:51:05.742Z,0.17
2023-02-14T05:53:22.439Z,0.17
2023-02-14T05:55:38.909Z,0.18
2023-02-14T05:57:55.571Z,0.20
2023-02-14T06:00:12.058Z,0.21
2023-02-14T06:02:28.596Z,0.21
2023-02-14T06:04:45.433Z,0.22
2023-02-14T06:07:02.139Z,0.24
2023-02-14T06:09:18.902Z,0.26
2023-02-14T06:11:35.324Z,0.29
2023-02-14T06:13:51.747Z,0.29
2023-02-14T06:16:08.192Z,0.28
2023-02-14T06:18:24.629Z,0.29
2023-02-14T06:20:41.328Z,0.31
2023-02-14T06:22:58.808Z,0.33
2023-02-14T06:25:15.466Z,0.34
2023-02-14T06:27:32.136Z,0.36
2023-02-14T06:29:48.615Z,0.37
2023-02-14T06:32:06.297Z,0.35
2023-02-14T06:34:23.049Z,0.36
2023-02-14T06:36:39.751Z,0.35
2023-02-14T06:38:56.194Z,0.37
2023-02-14T06:41:12.642Z,0.37
2023-02-14T06:43:29.118Z,0.39
2023-02-14T06:45:45.950Z,0.39
2023-02-14T06:48:02.708Z,0.38
2023-02-14T06:50:19.359Z,0.38
2023-02-14T06:52:36.022Z,0.42
2023-02-14T06:54:52.522Z,0.42
2023-02-14T06:57:09.260Z,0.42
2023-02-14T06:59:25.673Z,0.43
2023-02-14T07:01:44.202Z,0.43
2023-02-14T07:04:00.829Z,0.45
2023-02-14T07:06:17.479Z,0.48
2023-02-14T07:08:33.919Z,0.48
2023-02-14T07:10:50.586Z,0.50
2023-02-14T07:13:07.009Z,0.51
2023-02-14T07:15:23.409Z,0.53
2023-02-14T07:17:39.869Z,0.55
2023-02-14T07:19:56.282Z,0.56
2023-02-14T07:22:13.002Z,0.58
2023-02-14T07:24:29.435Z,0.60
2023-02-14T07:26:45.821Z,0.63
2023-02-14T07:29:02.326Z,0.66
2023-02-14T07:31:18.868Z,0.66
2023-02-14T07:33:35.336Z,0.64
2023-02-14T07:35:51.804Z,0.67
2023-02-14T07:38:08.473Z,0.68
2023-02-14T07:40:24.968Z,0.69
2023-02-14T07:42:41.359Z,0.69
2023-02-14T07:44:57.830Z,0.71
2023-02-14T07:47:14.292Z,0.74
2023-02-14T07:49:31.057Z,0.76
2023-02-14T07:51:47.577Z,0.80
2023-02-14T07:54:04.306Z,0.85
2023-02-14T07:56:22.020Z,0.89
2023-02-14T07:58:38.422Z,0.94
2023-02-14T08:00:54.823Z,0.97
2023-02-14T08:03:11.286Z,1.01
2023-02-14T08:05:27.842Z,1.04
2023-02-14T08:07:44.209Z,1.09
2023-02-14T08:10:00.766Z,1.10
2023-02-14T08:12:17.170Z,1.12
2023-02-14T08:14:33.847Z,1.14
2023-02-14T08:16:50.287Z,1.17
2023-02-14T08:19:06.962Z,1.21
2023-02-14T08:21:23.644Z,1.24
2023-02-14T08:23:40.391Z,1.24
2023-02-14T08:25:56.958Z,1.23
2023-02-14T08:28:13.620Z,1.25
2023-02-14T08:30:30.506Z,1.27
2023-02-14T08:32:46.951Z,1.33
2023-02-14T08:35:03.460Z,1.36
2023-02-14T08:37:19.942Z,1.37
2023-02-14T08:39:36.410Z,1.45
2023-02-14T08:41:53.072Z,1.50
2023-02-14T08:44:09.854Z,1.52
2023-02-14T08:46:26.577Z,1.55
2023-02-14T08:48:43.131Z,1.58
2023-02-14T08:50:59.942Z,1.59
2023-02-14T08:53:16.834Z,1.61
2023-02-14T08:55:33.526Z,1.64
2023-02-14T08:57:50.206Z,1.68
2023-02-14T09:00:06.849Z,1.72
2023-02-14T09:02:23.542Z,1.78
2023-02-14T09:04:39.954Z,1.81
2023-02-14T09:06:56.489Z,1.80
2023-02-14T09:09:12.937Z,1.80
2023-02-14T09:11:29.602Z,1.85
2023-02-14T09:13:46.194Z,1.83
2023-02-14T09:16:02.934Z,1.79
2023-02-14T09:18:19.326Z,1.78
2023-02-14T09:20:36.117Z,1.82
2023-02-14T09:22:52.736Z,1.87
2023-02-14T09:25:09.179Z,1.92
2023-02-14T09:27:25.961Z,1.93
2023-02-14T09:29:43.191Z,1.95
2023-02-14T09:31:59.737Z,2.00
2023-02-14T09:34:16.317Z,2.06
2023-02-14T09:36:32.611Z,2.09
2023-02-14T09:38:49.609Z,2.08
2023-02-14T09:41:07.173Z,2.13
2023-02-14T09:43:24.034Z,2.13
2023-02-14T09:45:43.166Z,2.13
2023-02-14T09:47:59.952Z,2.24
2023-02-14T09:50:17.698Z,2.27
2023-02-14T09:52:36.479Z,2.28
2023-02-14T09:54:53.154Z,2.31
2023-02-14T09:57:10.228Z,2.33
2023-02-14T09:59:26.740Z,2.34
2023-02-14T10:01:43.482Z,2.38
2023-02-14T10:03:59.991Z,2.42
2023-02-14T10:06:16.579Z,2.44
2023-02-14T10:08:33.046Z,2.49
2023-02-14T10:10:49.473Z,2.50
2023-02-14T10:13:06.219Z,2.51
2023-02-14T10:15:22.792Z,2.54
2023-02-14T10:17:39.162Z,2.54
2023-02-14T10:19:55.537Z,2.63
2023-02-14T10:22:12.088Z,2.63
2023-02-14T10:24:28.829Z,2.64
2023-02-14T10:26:45.509Z,2.67
2023-02-14T10:29:03.288Z,2.73
2023-02-14T10:31:19.839Z,2.77
2023-02-14T10:33:36.408Z,2.77
2023-02-14T10:35:52.815Z,2.79
2023-02-14T10:38:09.376Z,2.86
2023-02-14T10:40:25.921Z,2.88
2023-02-14T10:42:42.284Z,2.85
2023-02-14T10:44:58.743Z,2.87
2023-02-14T10:47:16.320Z,2.91
2023-02-14T10:49:32.829Z,2.95
2023-02-14T10:51:49.588Z,2.96
2023-02-14T10:54:06.128Z,3.00
2023-02-14T10:56:23.023Z,2.99
2023-02-14T10:58:39.545Z,3.03
2023-02-14T11:00:56.257Z,3.01
2023-02-14T11:03:12.828Z,3.06
2023-02-14T11:05:30.638Z,3.05
2023-02-14T11:07:46.956Z,3.08
2023-02-14T11:10:03.732Z,3.08
2023-02-14T11:12:20.376Z,3.09
2023-02-14T11:14:37.070Z,3.18
2023-02-14T11:16:53.794Z,3.20
2023-02-14T11:19:10.410Z,3.24
2023-02-14T11:21:27.067Z,3.26
2023-02-14T11:23:44.511Z,3.28
2023-02-14T11:26:01.336Z,3.26
2023-02-14T11:28:17.892Z,3.30
2023-02-14T11:30:34.402Z,3.33
2023-02-14T11:32:51.061Z,3.39
2023-02-14T11:35:07.504Z,3.49
2023-02-14T11:37:24.072Z,3.45
2023-02-14T11:39:40.447Z,3.49
2023-02-14T11:41:56.972Z,3.52
2023-02-14T11:44:13.768Z,3.53
2023-02-14T11:46:32.528Z,3.56
2023-02-14T11:48:49.220Z,3.60
2023-02-14T11:51:05.796Z,3.59
2023-02-14T11:53:22.220Z,3.58
2023-02-14T11:55:39.057Z,3.64
2023-02-14T11:57:55.523Z,3.69
2023-02-14T12:00:12.063Z,3.62
2023-02-14T12:02:29.888Z,3.65
2023-02-14T12:04:46.957Z,3.67
2023-02-14T12:07:03.740Z,3.65
2023-02-14T12:09:20.074Z,3.62
2023-02-14T12:11:36.710Z,3.76
2023-02-14T12:13:53.106Z,3.77
2023-02-14T12:16:09.678Z,3.73
2023-02-14T12:18:26.053Z,3.76
2023-02-14T12:20:42.505Z,3.85
2023-02-14T12:22:59.370Z,3.83
2023-02-14T12:25:15.868Z,3.82
2023-02-14T12:27:34.791Z,3.82
2023-02-14T12:29:52.166Z,3.85
2023-02-14T12:32:09.055Z,3.83
2023-02-14T12:34:25.500Z,3.82
2023-02-14T12:36:41.960Z,3.85
2023-02-14T12:38:58.649Z,3.78
2023-02-14T12:41:15.341Z,3.83
2023-02-14T12:43:31.777Z,3.83
2023-02-14T12:45:49.088Z,3.86
2023-02-14T12:48:05.626Z,3.89
2023-02-14T12:50:22.162Z,3.82
2023-02-14T12:52:38.892Z,3.80
2023-02-14T12:54:55.224Z,3.84
2023-02-14T12:57:11.707Z,3.85
2023-02-14T12:59:28.191Z,3.79
2023-02-14T13:01:44.930Z,3.79
2023-02-14T13:04:01.298Z,3.77
2023-02-14T13:06:17.587Z,3.82
2023-02-14T13:08:34.315Z,3.81
2023-02-14T13:10:51.049Z,3.81
2023-02-14T13:13:07.533Z,3.83
2023-02-14T13:15:24.031Z,3.79
2023-02-14T13:17:40.855Z,3.73
2023-02-14T13:19:57.322Z,3.79
2023-02-14T13:22:14.024Z,3.79
2023-02-14T13:24:30.759Z,3.79
2023-02-14T13:26:47.318Z,3.73
2023-02-14T13:29:03.731Z,3.82
2023-02-14T13:31:20.124Z,3.79
2023-02-14T13:33:36.514Z,3.80
2023-02-14T13:35:53.277Z,3.79
2023-02-14T13:38:09.682Z,3.79
2023-02-14T13:40:26.404Z,3.74
2023-02-14T13:42:43.088Z,3.73
2023-02-14T13:44:59.582Z,3.71
2023-02-14T13:47:16.340Z,3.68
2023-02-14T13:49:32.860Z,3.67
2023-02-14T13:51:49.381Z,3.63
2023-02-14T13:54:06.167Z,3.62
2023-02-14T13:56:22.645Z,3.58
2023-02-14T13:58:39.366Z,3.49
2023-02-14T14:00:56.173Z,3.54
2023-02-14T14:03:12.928Z,3.51
2023-02-14T14:05:29.623Z,3.50
2023-02-14T14:07:45.955Z,3.48
2023-02-14T14:10:02.481Z,3.47
2023-02-14T14:12:18.871Z,3.45
2023-02-14T14:14:35.497Z,3.47
2023-02-14T14:16:52.216Z,3.39
2023-02-14T14:19:08.858Z,3.38
2023-02-14T14:21:25.682Z,3.39
2023-02-14T14:23:42.431Z,3.35
2023-02-14T14:25:59.350Z,3.32
2023-02-14T14:28:15.881Z,3.31
2023-02-14T14:30:32.737Z,3.28
2023-02-14T14:32:49.188Z,3.27
2023-02-14T14:35:05.710Z,3.23
2023-02-14T14:37:22.454Z,3.17
2023-02-14T14:39:38.993Z,3.19
2023-02-14T14:41:55.412Z,3.23
2023-02-14T14:44:12.216Z,3.24
2023-02-14T14:46:28.854Z,3.22
2023-02-14T14:48:45.269Z,3.18
2023-02-14T14:51:01.703Z,3.18
2023-02-14T14:53:18.196Z,3.16
2023-02-14T14:55:34.629Z,3.13
2023-02-14T14:57:51.110Z,3.10
2023-02-14T15:00:07.746Z,3.13
2023-02-14T15:02:24.311Z,3.11
2023-02-14T15:04:41.083Z,3.01
2023-02-14T15:06:57.873Z,2.99
2023-02-14T15:09:14.575Z,3.01
2023-02-14T15:11:31.029Z,2.97
2023-02-14T15:13:47.536Z,3.00
2023-02-14T15:16:04.527Z,2.96
2023-02-14T15:18:21.172Z,2.91
2023-02-14T15:20:37.826Z,2.89
2023-02-14T15:22:54.495Z,2.85
2023-02-14T15:25:11.045Z,2.83
2023-02-14T15:27:27.749Z,2.83
2023-02-14T15:29:44.177Z,2.79
2023-02-14T15:32:03.158Z,2.79
2023-02-14T15:34:20.237Z,2.78
2023-02-14T15:36:36.690Z,2.79
2023-02-14T15:38:53.427Z,2.74
2023-02-14T15:41:10.066Z,2.75
2023-02-14T15:43:26.457Z,2.75
2023-02-14T15:45:42.888Z,2.74
2023-02-14T15:47:59.419Z,2.70
2023-02-14T15:50:16.072Z,2.66
2023-02-14T15:52:32.615Z,2.67
2023-02-14T15:54:49.124Z,2.66
2023-02-14T15:57:05.804Z,2.63
2023-02-14T15:59:22.539Z,2.59
2023-02-14T16:01:39.357Z,2.61
2023-02-14T16:03:56.032Z,2.58
2023-02-14T16:06:12.461Z,2.63
2023-02-14T16:08:28.933Z,2.60
2023-02-14T16:10:45.354Z,2.58
2023-02-14T16:13:02.104Z,2.60
2023-02-14T16:15:18.831Z,2.54
2023-02-14T16:17:35.544Z,2.51
2023-02-14T16:19:51.992Z,2.50
2023-02-14T16:22:08.518Z,2.48
2023-02-14T16:24:25.267Z,2.46
2023-02-14T16:26:42.129Z,2.47
2023-02-14T16:28:58.819Z,2.42
2023-02-14T16:31:15.411Z,2.43
2023-02-14T16:33:32.137Z,2.43
2023-02-14T16:35:48.627Z,2.39
2023-02-14T16:38:05.135Z,2.33
2023-02-14T16:40:21.940Z,2.27
2023-02-14T16:42:38.613Z,2.22
2023-02-14T16:44:55.123Z,2.24
2023-02-14T16:47:11.681Z,2.25
2023-02-14T16:49:28.171Z,2.21
2023-02-14T16:51:44.994Z,2.22
2023-02-14T16:54:01.685Z,2.15
2023-02-14T16:56:18.233Z,2.11
2023-02-14T16:58:34.657Z,2.08
2023-02-14T17:00:51.378Z,2.09
2023-02-14T17:03:08.215Z,2.09
2023-02-14T17:05:24.746Z,2.08
2023-02-14T17:07:41.478Z,2.10
2023-02-14T17:09:58.280Z,2.09
2023-02-14T17:12:15.939Z,2.08
2023-02-14T17:14:32.482Z,2.08
2023-02-14T17:16:48.868Z,2.05
2023-02-14T17:19:05.601Z,2.01
2023-02-14T17:21:22.381Z,2.01
2023-02-14T17:23:39.171Z,2.01
2023-02-14T17:25:55.997Z,2.02
2023-02-14T17:28:12.437Z,2.02
2023-02-14T17:30:29.164Z,2.01
2023-02-14T17:32:45.775Z,1.98
2023-02-14T17:35:02.503Z,1.94
2023-02-14T17:37:20.039Z,1.96
2023-02-14T17:39:36.524Z,1.94
2023-02-14T17:41:53.065Z,1.93
2023-02-14T17:44:09.595Z,1.94
2023-02-14T17:46:26.428Z,1.94
2023-02-14T17:48:42.829Z,1.89
2023-02-14T17:51:00.430Z,1.85
2023-02-14T17:53:17.135Z,1.82
2023-02-14T17:55:33.852Z,1.80
2023-02-14T17:57:50.295Z,1.79
2023-02-14T18:00:06.792Z,1.82
2023-02-14T18:02:23.284Z,1.78
2023-02-14T18:04:39.919Z,1.78
2023-02-14T18:06:56.400Z,1.79
2023-02-14T18:09:13.182Z,1.78
2023-02-14T18:11:29.919Z,1.77
2023-02-14T18:13:46.317Z,1.73
2023-02-14T18:16:02.653Z,1.71
2023-02-14T18:18:19.148Z,1.72
2023-02-14T18:20:35.856Z,1.74
2023-02-14T18:22:52.572Z,1.76
2023-02-14T18:25:09.080Z,1.75
2023-02-14T18:27:25.594Z,1.72
2023-02-14T18:29:42.062Z,1.71
2023-02-14T18:31:58.815Z,1.73
2023-02-14T18:34:15.478Z,1.74
2023-02-14T18:36:32.032Z,1.74
2023-02-14T18:38:48.742Z,1.75
2023-02-14T18:41:05.573Z,1.76
2023-02-14T18:43:22.103Z,1.75
2023-02-14T18:45:38.612Z,1.71
2023-02-14T18:47:55.103Z,1.67
2023-02-14T18:50:11.791Z,1.68
2023-02-14T18:52:28.248Z,1.68
2023-02-14T18:54:44.731Z,1.72
2023-02-14T18:57:01.487Z,1.70
2023-02-14T18:59:17.950Z,1.68
2023-02-14T19:01:34.288Z,1.67
2023-02-14T19:03:51.071Z,1.63
2023-02-14T19:06:07.554Z,1.60
2023-02-14T19:08:24.261Z,1.60
2023-02-14T19:10:40.688Z,1.60
2023-02-14T19:12:57.116Z,1.62
2023-02-14T19:15:13.647Z,1.65
2023-02-14T19:17:30.358Z,1.66
2023-02-14T19:19:47.405Z,1.64
2023-02-14T19:22:03.983Z,1.62
2023-02-14T19:24:20.296Z,1.61
2023-02-14T19:26:36.643Z,1.64
2023-02-14T19:28:53.105Z,1.65
2023-02-14T19:31:09.795Z,1.66
2023-02-14T19:33:26.333Z,1.66
2023-02-14T19:35:42.981Z,1.66
2023-02-14T19:37:59.479Z,1.70
2023-02-14T19:40:16.031Z,1.69
2023-02-14T19:42:32.523Z,1.69
2023-02-14T19:44:48.946Z,1.67
2023-02-14T19:47:19.240Z,1.68
2023-02-14T19:49:40.282Z,1.63
2023-02-14T19:51:56.673Z,1.61
2023-02-14T19:54:13.148Z,1.58
2023-02-14T19:56:29.640Z,1.56
2023-02-14T19:58:46.471Z,1.52
2023-02-14T20:01:03.376Z,1.49
2023-02-14T20:03:20.157Z,1.44
2023-02-14T20:05:36.989Z,1.42
2023-02-14T20:07:53.629Z,1.37
2023-02-14T20:10:10.326Z,1.33
2023-02-14T20:12:26.653Z,1.29
2023-02-14T20:14:51.451Z,1.27
2023-02-14T20:17:08.253Z,1.24
2023-02-14T20:19:24.945Z,1.29
2023-02-14T20:21:41.466Z,1.31
2023-02-14T20:23:58.135Z,1.34
2023-02-14T20:26:14.882Z,1.39
2023-02-14T20:28:31.265Z,1.38
2023-02-14T20:30:48.038Z,1.37
2023-02-14T20:33:04.874Z,1.38
2023-02-14T20:35:21.261Z,1.42
2023-02-14T20:37:37.579Z,1.42
2023-02-14T20:39:53.966Z,1.38
2023-02-14T20:42:10.600Z,1.36
2023-02-14T20:44:27.279Z,1.33
2023-02-14T20:46:43.918Z,1.31
2023-02-14T20:49:00.244Z,1.29
2023-02-14T20:51:16.989Z,1.28
2023-02-14T20:53:33.565Z,1.30
2023-02-14T20:55:50.269Z,1.33
2023-02-14T20:58:07.005Z,1.37
2023-02-14T21:00:23.897Z,1.37
2023-02-14T21:02:40.461Z,1.33
2023-02-14T21:04:56.879Z,1.31
2023-02-14T21:07:13.596Z,1.30
2023-02-14T21:09:30.322Z,1.32
2023-02-14T21:11:47.047Z,1.33
2023-02-14T21:14:03.773Z,1.35
2023-02-14T21:16:20.557Z,1.34
2023-02-14T21:18:37.128Z,1.32
2023-02-14T21:20:53.637Z,1.33
2023-02-14T21:23:10.327Z,1.33
2023-02-14T21:25:27.228Z,1.34
2023-02-14T21:27:43.691Z,1.32
2023-02-14T21:30:00.291Z,1.29
2023-02-14T21:32:17.019Z,1.28
2023-02-14T21:34:33.774Z,1.26
2023-02-14T21:36:50.139Z,1.26
2023-02-14T21:39:06.670Z,1.23
2023-02-14T21:41:23.146Z,1.20
2023-02-14T21:43:39.866Z,1.21
2023-02-14T21:45:56.550Z,1.22
2023-02-14T21:48:13.285Z,1.21
2023-02-14T21:50:29.756Z,1.22
2023-02-14T21:52:46.558Z,1.22
2023-02-14T21:55:03.336Z,1.23
2023-02-14T21:57:19.747Z,1.22
2023-02-14T21:59:36.489Z,1.22
2023-02-14T22:01:53.144Z,1.21
2023-02-14T22:04:09.651Z,1.22
2023-02-14T22:06:26.036Z,1.22
2023-02-14T22:08:42.477Z,1.23
2023-02-14T22:10:58.898Z,1.22
2023-02-14T22:13:15.474Z,1.21
2023-02-14T22:15:31.755Z,1.22
2023-02-14T22:17:48.201Z,1.20
2023-02-14T22:20:04.661Z,1.19
2023-02-14T22:22:20.994Z,1.16
2023-02-14T22:24:37.589Z,1.15
2023-02-14T22:26:54.048Z,1.14
2023-02-14T22:29:10.764Z,1.10
2023-02-14T22:31:27.550Z,1.08
2023-02-14T22:33:44.177Z,1.06
2023-02-14T22:36:01.191Z,1.09
2023-02-14T22:38:18.042Z,1.10
2023-02-14T22:40:34.717Z,1.12
2023-02-14T22:42:51.269Z,1.09
2023-02-14T22:45:07.712Z,1.13
2023-02-14T22:47:24.984Z,1.11
2023-02-14T22:49:42.140Z,1.14
2023-02-14T22:51:58.899Z,1.13
2023-02-14T22:54:18.457Z,1.15
2023-02-14T22:56:34.863Z,1.16
2023-02-14T22:58:51.489Z,1.17
2023-02-14T23:01:08.213Z,1.13
2023-02-14T23:03:24.928Z,1.12
2023-02-14T23:05:41.717Z,1.10
2023-02-14T23:07:59.446Z,1.08
2023-02-14T23:10:15.916Z,1.04
2023-02-14T23:12:32.618Z,1.04
2023-02-14T23:14:49.099Z,1.04
2023-02-14T23:17:05.910Z,1.07
2023-02-14T23:19:22.439Z,1.11
2023-02-14T23:21:39.191Z,1.13
2023-02-14T23:23:55.814Z,1.11
2023-02-14T23:26:12.842Z,1.12
2023-02-14T23:28:29.596Z,1.14
2023-02-14T23:30:46.098Z,1.15
2023-02-14T23:33:02.661Z,1.19
2023-02-14T23:35:19.383Z,1.17
2023-02-14T23:37:35.908Z,1.15
2023-02-14T23:39:52.668Z,1.12
2023-02-14T23:42:09.137Z,1.11
2023-02-14T23:44:25.639Z,1.09
2023-02-14T23:46:42.147Z,1.11
2023-02-14T23:48:58.464Z,1.08
2023-02-14T23:51:14.846Z,1.06
2023-02-14T23:53:31.347Z,1.04
2023-02-14T23:55:47.915Z,1.04
2023-02-14T23:58:04.360Z,1.05
